Time;durP1;ratioP1;P1;durP2;ratioP2;P2;SDS_P1;SDS_P2;PMS_P1;PMS_P2;Temp;Humidity;BMP_temperature;BMP_pressure;BME280_temperature;BME280_humidity;BME280_pressure;Samples;Min_cycle;Max_cycle;Signal;HPM_P1;HPM_P2
2021/03/22 00:02:54;;;;;;;0.60;0.38;;;19.40;44.10;;;;;;7786812;22;20058;-70
2021/03/22 00:05:56;;;;;;;0.90;0.30;;;19.40;44.20;;;;;;7786988;22;20006;-70
2021/03/22 00:08:57;;;;;;;0.60;0.30;;;19.40;44.20;;;;;;7786803;22;20031;-70
2021/03/22 00:11:57;;;;;;;0.40;0.40;;;19.50;44.20;;;;;;7759576;22;20003;-70
2021/03/22 00:14:58;;;;;;;0.30;0.20;;;19.40;44.20;;;;;;7786779;22;20010;-69
2021/03/22 00:17:59;;;;;;;0.25;0.25;;;19.40;44.20;;;;;;7786951;22;20014;-70
2021/03/22 00:21:01;;;;;;;1.05;0.50;;;19.40;44.20;;;;;;7787182;22;20608;-70
2021/03/22 00:24:01;;;;;;;1.33;0.50;;;19.40;44.20;;;;;;7787353;22;20008;-70
2021/03/22 00:27:02;;;;;;;0.93;0.55;;;19.40;44.20;;;;;;7786831;22;20007;-70
2021/03/22 00:30:07;;;;;;;0.22;0.15;;;19.40;44.20;;;;;;7786494;22;20027;-70
2021/03/22 00:33:09;;;;;;;0.43;0.30;;;19.40;44.30;;;;;;7786607;22;20031;-70
2021/03/22 00:36:10;;;;;;;0.75;0.40;;;19.50;44.30;;;;;;7786671;22;20015;-70
2021/03/22 00:39:11;;;;;;;2.42;0.30;;;19.50;44.30;;;;;;7786855;22;20455;-70
2021/03/22 00:42:11;;;;;;;0.30;0.30;;;19.40;44.30;;;;;;7786694;22;20018;-73
2021/03/22 00:45:13;;;;;;;1.05;0.50;;;19.40;44.10;;;;;;7786902;22;20339;-70
2021/03/22 00:48:14;;;;;;;1.08;0.30;;;19.40;44.20;;;;;;7786040;22;20042;-70
2021/03/22 00:51:15;;;;;;;0.63;0.22;;;19.40;44.20;;;;;;7786683;22;20011;-70
2021/03/22 00:54:15;;;;;;;0.82;0.40;;;19.40;44.20;;;;;;7786759;22;20081;-70
2021/03/22 00:57:16;;;;;;;0.40;0.30;;;19.40;44.20;;;;;;7786518;22;20015;-70
2021/03/22 01:00:27;;;;;;;0.30;0.22;;;19.40;44.30;;;;;;7786793;22;20450;-70
2021/03/22 01:03:31;;;;;;;0.50;0.40;;;19.40;44.40;;;;;;7786491;22;20078;-70
2021/03/22 01:06:31;;;;;;;1.00;0.35;;;19.40;44.30;;;;;;7786200;22;20004;-70
2021/03/22 01:09:32;;;;;;;0.50;0.40;;;19.40;44.30;;;;;;7786474;22;20073;-70
2021/03/22 01:12:32;;;;;;;0.30;0.30;;;19.40;44.20;;;;;;7787350;22;20000;-69
2021/03/22 01:15:33;;;;;;;0.20;0.20;;;19.40;44.30;;;;;;7787124;22;20004;-70
2021/03/22 01:18:37;;;;;;;0.57;0.40;;;19.40;44.20;;;;;;7786556;22;20082;-69
2021/03/22 01:21:47;;;;;;;0.70;0.40;;;19.40;44.20;;;;;;7786008;22;20454;-70
2021/03/22 01:24:47;;;;;;;0.57;0.43;;;19.40;44.30;;;;;;7786648;22;20454;-70
2021/03/22 01:27:48;;;;;;;0.65;0.40;;;19.40;44.30;;;;;;7786392;22;20030;-70
2021/03/22 01:30:58;;;;;;;0.82;0.40;;;19.40;44.20;;;;;;7786666;22;20497;-70
2021/03/22 01:33:59;;;;;;;0.47;0.35;;;19.40;44.20;;;;;;7759426;22;20087;-70
2021/03/22 01:37:00;;;;;;;0.30;0.30;;;19.40;44.30;;;;;;7786452;22;20018;-70
2021/03/22 01:40:00;;;;;;;0.90;0.40;;;19.40;44.20;;;;;;7758529;22;20012;-70
2021/03/22 01:43:27;;;;;;;0.35;0.30;;;19.40;44.20;;;;;;7786119;22;20011;-69
2021/03/22 01:46:29;;;;;;;0.80;0.32;;;19.40;44.40;;;;;;7760556;22;20019;-69
2021/03/22 01:49:39;;;;;;;0.43;0.30;;;19.40;44.30;;;;;;7788761;22;20412;-70
2021/03/22 01:52:43;;;;;;;0.70;0.28;;;19.40;44.30;;;;;;7788712;22;20004;-70
2021/03/22 01:55:44;;;;;;;0.20;0.20;;;19.40;44.30;;;;;;7788754;22;20443;-69
2021/03/22 01:58:44;;;;;;;0.20;0.20;;;19.40;44.20;;;;;;7788511;22;20019;-69
2021/03/22 02:01:50;;;;;;;0.80;0.50;;;19.40;44.30;;;;;;7788590;22;20035;-69
2021/03/22 02:04:50;;;;;;;0.20;0.20;;;19.40;44.30;;;;;;7788676;22;20010;-70
2021/03/22 02:07:56;;;;;;;0.28;0.20;;;19.40;44.30;;;;;;7788525;22;20004;-71
2021/03/22 02:10:57;;;;;;;0.70;0.38;;;19.40;44.30;;;;;;7779047;22;20008;-69
2021/03/22 02:14:01;;;;;;;0.50;0.30;;;19.40;44.30;;;;;;7761259;22;20007;-69
2021/03/22 02:17:14;;;;;;;0.20;0.20;;;19.40;44.30;;;;;;7787989;22;20126;-70
2021/03/22 02:20:29;;;;;;;0.82;0.38;;;19.40;44.30;;;;;;7788439;22;20053;-69
2021/03/22 02:24:02;;;;;;;0.90;0.30;;;19.40;44.30;;;;;;7788291;22;20019;-69
2021/03/22 02:27:40;;;;;;;0.52;0.30;;;19.40;44.30;;;;;;7789405;22;20411;-70
2021/03/22 02:31:17;;;;;;;0.70;0.30;;;19.40;44.30;;;;;;7788664;22;20004;-70
2021/03/22 02:34:28;;;;;;;0.20;0.20;;;19.40;44.30;;;;;;7778162;22;20413;-70
2021/03/22 02:37:37;;;;;;;0.22;0.22;;;19.40;44.30;;;;;;7788070;22;20494;-70
2021/03/22 02:40:46;;;;;;;0.85;0.30;;;19.40;44.30;;;;;;7760936;22;20008;-70
2021/03/22 02:44:07;;;;;;;0.40;0.40;;;19.40;44.30;;;;;;7788150;22;20010;-70
2021/03/22 02:47:27;;;;;;;0.40;0.30;;;19.40;44.30;;;;;;7787684;22;20004;-70
2021/03/22 02:50:34;;;;;;;2.42;0.35;;;19.40;44.30;;;;;;7787941;22;20007;-70
2021/03/22 02:53:56;;;;;;;0.70;0.30;;;19.40;44.30;;;;;;7787254;22;19999;-70
2021/03/22 02:57:49;;;;;;;0.85;0.40;;;19.40;44.30;;;;;;7788159;22;20408;-69
2021/03/22 03:01:01;;;;;;;0.63;0.30;;;19.40;44.30;;;;;;7725481;22;20441;-70
2021/03/22 03:04:03;;;;;;;0.57;0.30;;;19.40;44.30;;;;;;7788164;22;20004;-70
2021/03/22 03:07:07;;;;;;;0.50;0.28;;;19.40;44.30;;;;;;7787739;22;20010;-70
2021/03/22 03:10:10;;;;;;;1.20;0.40;;;19.40;44.30;;;;;;7787252;22;20007;-70
2021/03/22 03:13:11;;;;;;;1.13;0.60;;;19.40;44.30;;;;;;7787742;22;20004;-70
2021/03/22 03:16:11;;;;;;;1.02;0.40;;;19.40;44.30;;;;;;7787455;22;20000;-70
2021/03/22 03:19:12;;;;;;;0.47;0.30;;;19.40;44.30;;;;;;7787815;22;20042;-70
2021/03/22 03:22:13;;;;;;;0.30;0.20;;;19.40;44.30;;;;;;7787716;22;20365;-71
2021/03/22 03:25:14;;;;;;;1.20;0.40;;;19.40;44.30;;;;;;7787513;22;20399;-70
2021/03/22 03:28:14;;;;;;;0.30;0.20;;;19.40;44.30;;;;;;7786705;22;20376;-70
2021/03/22 03:31:15;;;;;;;0.98;0.30;;;19.40;44.30;;;;;;7787633;22;20117;-70
2021/03/22 03:34:16;;;;;;;0.63;0.30;;;19.40;44.30;;;;;;7787410;22;20003;-70
2021/03/22 03:37:16;;;;;;;0.43;0.30;;;19.40;44.30;;;;;;7787487;22;20086;-70
2021/03/22 03:40:30;;;;;;;0.38;0.30;;;19.40;44.30;;;;;;7787291;22;20003;-70
2021/03/22 03:43:31;;;;;;;0.57;0.40;;;19.40;44.30;;;;;;7778924;22;20006;-70
2021/03/22 03:46:32;;;;;;;0.45;0.38;;;19.40;44.30;;;;;;7786578;22;20000;-71
2021/03/22 03:49:34;;;;;;;0.40;0.30;;;19.40;44.40;;;;;;7786834;22;20023;-70
2021/03/22 03:52:34;;;;;;;0.45;0.30;;;19.40;44.30;;;;;;7787620;22;20004;-70
2021/03/22 03:55:35;;;;;;;0.98;0.50;;;19.40;44.30;;;;;;7787114;22;20003;-70
2021/03/22 03:58:35;;;;;;;0.60;0.40;;;19.40;44.30;;;;;;7760233;22;20016;-70
2021/03/22 04:01:36;;;;;;;0.73;0.43;;;19.40;44.30;;;;;;7787309;22;20079;-70
2021/03/22 04:04:37;;;;;;;0.85;0.47;;;19.40;44.30;;;;;;7786708;22;20003;-70
2021/03/22 04:07:37;;;;;;;0.40;0.35;;;19.40;44.30;;;;;;7786831;22;20004;-70
2021/03/22 04:10:38;;;;;;;0.80;0.32;;;19.40;44.30;;;;;;7786927;22;20004;-70
2021/03/22 04:13:39;;;;;;;0.73;0.30;;;19.40;44.30;;;;;;7787517;22;20323;-70
2021/03/22 04:16:40;;;;;;;0.98;0.40;;;19.40;44.30;;;;;;7787034;22;20447;-70
2021/03/22 04:19:42;;;;;;;0.77;0.30;;;19.40;44.30;;;;;;7786823;22;20057;-71
2021/03/22 04:22:42;;;;;;;0.32;0.30;;;19.40;44.30;;;;;;7786470;22;20008;-70
2021/03/22 04:25:43;;;;;;;1.27;0.40;;;19.40;44.30;;;;;;7786928;22;20419;-70
2021/03/22 04:28:44;;;;;;;0.98;0.50;;;19.40;44.30;;;;;;7759750;22;20003;-70
2021/03/22 04:31:44;;;;;;;0.47;0.32;;;19.40;44.40;;;;;;7786786;22;20039;-70
2021/03/22 04:34:45;;;;;;;0.75;0.45;;;19.40;45.10;;;;;;7786679;22;20355;-70
2021/03/22 04:37:45;;;;;;;0.88;0.40;;;19.30;44.30;;;;;;7759654;22;20085;-70
2021/03/22 04:40:46;;;;;;;1.35;0.50;;;19.40;44.30;;;;;;7786599;22;20011;-70
2021/03/22 04:43:49;;;;;;;1.33;0.40;;;19.40;44.30;;;;;;7786745;22;20311;-70
2021/03/22 04:46:50;;;;;;;0.57;0.40;;;19.40;44.30;;;;;;7786578;22;20011;-70
2021/03/22 04:49:50;;;;;;;1.45;0.40;;;19.30;44.30;;;;;;7786446;22;20355;-70
2021/03/22 04:52:51;;;;;;;0.75;0.30;;;19.40;44.40;;;;;;7786613;22;20024;-70
2021/03/22 04:55:52;;;;;;;1.60;0.60;;;19.30;44.30;;;;;;7787267;22;20003;-70
2021/03/22 04:58:53;;;;;;;0.57;0.30;;;19.30;44.30;;;;;;7786037;22;20074;-69
2021/03/22 05:01:53;;;;;;;0.88;0.30;;;19.40;44.40;;;;;;7786383;22;20446;-70
2021/03/22 05:04:54;;;;;;;1.63;0.47;;;19.30;44.30;;;;;;7759479;22;20011;-70
2021/03/22 05:07:54;;;;;;;0.60;0.40;;;19.40;44.40;;;;;;7786260;22;20000;-70
2021/03/22 05:10:58;;;;;;;0.90;0.43;;;19.30;44.30;;;;;;7786976;22;20003;-70
2021/03/22 05:13:58;;;;;;;1.45;0.50;;;19.40;44.30;;;;;;7786399;22;20038;-70
2021/03/22 05:16:59;;;;;;;0.57;0.40;;;19.40;44.20;;;;;;7785890;22;20087;-70
2021/03/22 05:19:59;;;;;;;0.47;0.35;;;19.40;44.20;;;;;;7787956;22;20012;-70
2021/03/22 05:23:05;;;;;;;0.65;0.60;;;19.40;44.20;;;;;;7788698;22;20007;-69
2021/03/22 05:26:08;;;;;;;0.95;0.50;;;19.40;44.30;;;;;;7761807;22;20007;-69
2021/03/22 05:29:09;;;;;;;0.88;0.38;;;19.40;44.30;;;;;;7788933;22;20003;-70
2021/03/22 05:32:30;;;;;;;0.75;0.40;;;19.40;44.30;;;;;;7788860;22;20378;-70
2021/03/22 05:35:31;;;;;;;0.43;0.35;;;19.40;44.20;;;;;;7761091;22;20049;-70
2021/03/22 05:38:32;;;;;;;3.33;0.50;;;19.40;44.10;;;;;;7788639;22;20095;-70
2021/03/22 05:41:43;;;;;;;0.70;0.50;;;19.40;44.20;;;;;;7788724;22;20011;-70
2021/03/22 05:45:10;;;;;;;1.33;0.60;;;19.40;44.20;;;;;;7788810;22;20004;-70
2021/03/22 05:48:37;;;;;;;0.88;0.25;;;19.40;44.10;;;;;;7788653;22;20026;-71
2021/03/22 05:52:10;;;;;;;1.00;0.40;;;19.40;44.20;;;;;;7788830;22;20004;-69
2021/03/22 05:55:19;;;;;;;1.60;0.52;;;19.40;44.20;;;;;;7653453;22;20431;-70
2021/03/22 05:58:41;;;;;;;1.42;0.50;;;19.40;44.20;;;;;;7788177;22;20461;-70
2021/03/22 06:01:48;;;;;;;0.57;0.35;;;19.40;44.20;;;;;;7788786;22;19999;-70
2021/03/22 06:04:53;;;;;;;0.43;0.30;;;19.40;44.10;;;;;;7788522;22;20435;-70
2021/03/22 06:07:58;;;;;;;1.95;0.60;;;19.40;44.20;;;;;;7788507;22;20004;-70
2021/03/22 06:11:01;;;;;;;2.35;0.60;;;19.40;44.10;;;;;;7788011;22;20015;-70
2021/03/22 06:14:14;;;;;;;0.93;0.38;;;19.40;44.10;;;;;;7788409;22;20015;-70
2021/03/22 06:17:21;;;;;;;0.85;0.40;;;19.40;44.20;;;;;;7761051;22;20023;-69
2021/03/22 06:20:37;;;;;;;0.98;0.50;;;19.40;44.20;;;;;;7761364;22;20038;-70
2021/03/22 06:23:40;;;;;;;1.17;0.47;;;19.40;44.20;;;;;;7788054;22;20062;-70
2021/03/22 06:26:44;;;;;;;0.77;0.38;;;19.40;44.20;;;;;;7788015;22;20070;-70
2021/03/22 06:29:45;;;;;;;1.63;0.38;;;19.40;44.20;;;;;;7787561;22;20389;-70
2021/03/22 06:32:49;;;;;;;1.00;0.50;;;19.40;44.20;;;;;;7787873;22;20008;-70
2021/03/22 06:35:50;;;;;;;0.63;0.40;;;19.40;44.20;;;;;;7761134;22;20035;-70
2021/03/22 06:38:54;;;;;;;0.93;0.50;;;19.50;44.30;;;;;;7788111;22;20447;-70
2021/03/22 06:41:55;;;;;;;0.85;0.43;;;19.40;44.20;;;;;;7788399;22;20050;-70
2021/03/22 06:44:56;;;;;;;2.60;0.65;;;19.40;44.20;;;;;;7787768;22;20493;-70
2021/03/22 06:48:24;;;;;;;1.27;0.68;;;19.40;44.30;;;;;;7786889;22;20015;-69
2021/03/22 06:51:24;;;;;;;0.70;0.43;;;19.40;44.20;;;;;;7788331;22;20057;-70
2021/03/22 06:54:39;;;;;;;1.10;0.50;;;19.40;44.30;;;;;;7787823;22;20004;-70
2021/03/22 06:57:51;;;;;;;1.58;0.65;;;19.40;44.20;;;;;;7747191;22;20020;-70
2021/03/22 07:01:13;;;;;;;1.70;0.52;;;19.50;44.30;;;;;;7756851;22;20050;-70
2021/03/22 07:04:30;;;;;;;1.77;0.50;;;19.40;44.30;;;;;;7785228;22;20430;-69
2021/03/22 07:07:31;;;;;;;1.10;0.73;;;19.40;44.30;;;;;;7786895;22;20087;-70
2021/03/22 07:10:55;;;;;;;3.58;0.70;;;19.50;44.30;;;;;;7787157;22;20750;-70
2021/03/22 07:14:01;;;;;;;10.82;1.55;;;19.40;44.50;;;;;;7766804;22;20004;-71
2021/03/22 07:17:17;;;;;;;7.72;1.80;;;19.40;43.40;;;;;;7786753;22;20016;-71
2021/03/22 07:20:18;;;;;;;9.90;1.60;;;19.40;42.80;;;;;;7786483;22;20007;-70
2021/03/22 07:23:22;;;;;;;8.07;1.80;;;19.40;42.90;;;;;;7786527;22;20066;-68
2021/03/22 07:26:43;;;;;;;19.98;2.20;;;19.50;43.00;;;;;;7783899;22;20312;-70
2021/03/22 07:30:15;;;;;;;9.68;1.95;;;19.50;43.30;;;;;;7786106;22;20089;-71
2021/03/22 07:33:42;;;;;;;10.48;1.33;;;19.50;43.60;;;;;;7784785;22;20004;-71
2021/03/22 07:37:26;;;;;;;8.02;1.73;;;19.50;44.10;;;;;;7758728;22;20004;-70
2021/03/22 07:40:52;;;;;;;4.72;1.20;;;19.50;43.70;;;;;;7735600;22;20113;-70
2021/03/22 07:44:22;;;;;;;7.05;1.25;;;19.50;43.60;;;;;;7785386;22;20004;-70
2021/03/22 07:47:45;;;;;;;6.10;1.20;;;19.50;43.70;;;;;;7785100;22;20026;-70
2021/03/22 07:51:04;;;;;;;9.82;1.92;;;19.50;43.90;;;;;;7786456;22;20004;-71
2021/03/22 07:54:28;;;;;;;7.07;1.40;;;19.50;44.30;;;;;;7786030;22;20007;-69
2021/03/22 07:57:52;;;;;;;10.63;1.50;;;19.60;44.60;;;;;;7780408;22;20316;-70
2021/03/22 08:01:00;;;;;;;9.50;1.60;;;19.50;44.10;;;;;;7759176;22;20031;-70
2021/03/22 08:04:40;;;;;;;6.20;1.75;;;19.50;44.20;;;;;;7758572;22;20007;-69
2021/03/22 08:08:19;;;;;;;4.78;1.50;;;19.50;44.80;;;;;;7785862;22;20008;-69
2021/03/22 08:11:48;;;;;;;4.70;1.42;;;19.50;44.20;;;;;;7780868;22;20010;-70
2021/03/22 08:14:56;;;;;;;5.90;1.73;;;19.50;44.20;;;;;;7785329;22;20011;-69
2021/03/22 08:18:08;;;;;;;5.15;1.42;;;19.50;44.30;;;;;;7785743;22;20385;-70
2021/03/22 08:21:48;;;;;;;9.05;1.50;;;19.50;44.30;;;;;;7786675;22;20004;-70
2021/03/22 08:25:03;;;;;;;8.82;1.50;;;19.50;44.30;;;;;;7784872;22;20000;-69
2021/03/22 08:28:14;;;;;;;3.25;1.25;;;19.50;44.40;;;;;;7785669;22;20623;-69
2021/03/22 08:31:46;;;;;;;2.55;1.23;;;19.50;44.50;;;;;;7784363;22;20419;-70
2021/03/22 08:35:09;;;;;;;9.63;1.33;;;19.50;44.60;;;;;;7721979;22;20695;-69
2021/03/22 08:38:15;;;;;;;4.05;1.25;;;19.50;44.60;;;;;;7782807;22;20020;-69
2021/03/22 08:41:38;;;;;;;;;;;19.50;44.60;;;;;;7785410;22;20034;-69
2021/03/22 08:44:46;;;;;;;5.00;1.15;;;19.50;44.60;;;;;;7763979;22;19899;-69
2021/03/22 08:47:57;;;;;;;6.43;1.13;;;19.50;44.60;;;;;;7784063;22;20023;-69
2021/03/22 08:51:02;;;;;;;5.55;1.20;;;19.50;44.70;;;;;;7784113;22;20004;-70
2021/03/22 08:54:03;;;;;;;4.22;1.92;;;19.60;44.80;;;;;;7785118;22;20031;-70
2021/03/22 08:57:20;;;;;;;4.20;1.40;;;19.60;44.90;;;;;;7786163;22;20141;-69
2021/03/22 09:00:32;;;;;;;5.60;1.20;;;19.60;44.70;;;;;;7786699;22;20015;-70
2021/03/22 09:03:40;;;;;;;5.82;1.13;;;19.50;44.60;;;;;;7786749;22;20008;-69
2021/03/22 09:07:01;;;;;;;3.80;1.13;;;19.50;44.70;;;;;;7785936;22;20455;-70
2021/03/22 09:10:24;;;;;;;11.45;1.08;;;19.50;44.70;;;;;;7786049;22;20007;-70
2021/03/22 09:13:27;;;;;;;9.43;1.27;;;19.60;44.80;;;;;;7786470;22;20012;-69
2021/03/22 09:16:35;;;;;;;2.40;1.08;;;19.60;44.60;;;;;;7786628;22;20427;-70
2021/03/22 09:19:44;;;;;;;2.35;1.00;;;19.50;44.40;;;;;;7786879;22;20014;-70
2021/03/22 09:22:49;;;;;;;2.65;0.85;;;19.60;44.60;;;;;;7786533;22;20003;-70
2021/03/22 09:25:55;;;;;;;3.58;1.35;;;19.50;44.40;;;;;;7787270;22;20003;-69
2021/03/22 09:29:31;;;;;;;2.95;0.93;;;19.50;44.40;;;;;;7786142;22;20043;-70
2021/03/22 09:32:34;;;;;;;5.07;1.30;;;19.50;44.50;;;;;;7760106;22;20416;-70
2021/03/22 09:36:07;;;;;;;1.83;0.82;;;19.50;44.50;;;;;;7787196;22;20004;-69
2021/03/22 09:39:14;;;;;;;2.25;0.85;;;19.50;44.40;;;;;;7722484;22;20019;-70
2021/03/22 09:42:21;;;;;;;3.88;1.30;;;19.50;44.40;;;;;;7785375;22;20019;-69
2021/03/22 09:45:23;;;;;;;1.10;0.75;;;19.50;44.50;;;;;;7786236;22;20035;-69
2021/03/22 09:48:36;;;;;;;1.70;1.02;;;19.50;44.40;;;;;;7785936;22;20043;-69
2021/03/22 09:51:55;;;;;;;3.80;1.10;;;19.50;44.50;;;;;;7786389;22;20004;-70
2021/03/22 09:54:57;;;;;;;2.00;0.63;;;19.50;44.30;;;;;;7785427;22;20498;-69
2021/03/22 09:58:16;;;;;;;2.55;1.13;;;19.50;44.30;;;;;;7786050;22;20446;-69
2021/03/22 10:01:25;;;;;;;1.65;0.70;;;19.50;44.20;;;;;;7786487;22;20061;-69
2021/03/22 10:04:27;;;;;;;3.60;0.80;;;19.50;44.20;;;;;;7782985;22;20012;-70
2021/03/22 10:07:30;;;;;;;1.90;0.90;;;19.50;44.30;;;;;;7786390;22;20000;-69
2021/03/22 10:10:38;;;;;;;2.75;0.90;;;19.50;44.20;;;;;;7785940;22;20348;-69
2021/03/22 10:13:44;;;;;;;1.70;0.88;;;19.50;44.20;;;;;;7785018;22;20007;-70
2021/03/22 10:16:49;;;;;;;2.00;0.90;;;19.50;44.20;;;;;;7785649;22;20002;-70
2021/03/22 10:19:49;;;;;;;1.95;0.70;;;19.50;44.30;;;;;;7785404;22;20000;-69
2021/03/22 10:23:00;;;;;;;3.83;0.88;;;19.50;44.20;;;;;;7786164;22;20000;-69
2021/03/22 10:26:34;;;;;;;4.20;1.00;;;19.50;44.10;;;;;;7784357;22;20015;-70
2021/03/22 10:29:36;;;;;;;1.85;0.90;;;19.50;44.10;;;;;;7783113;22;20050;-69
2021/03/22 10:32:41;;;;;;;3.92;0.98;;;19.50;44.10;;;;;;7785905;22;19999;-70
2021/03/22 10:35:55;;;;;;;3.60;1.10;;;19.50;44.40;;;;;;7781834;22;20034;-70
2021/03/22 10:38:57;;;;;;;3.42;1.23;;;19.50;44.30;;;;;;7758105;22;20020;-70
2021/03/22 10:41:57;;;;;;;5.65;1.05;;;19.50;44.30;;;;;;7784281;22;20083;-70
2021/03/22 10:44:58;;;;;;;1.45;0.70;;;19.50;44.30;;;;;;7785774;22;20025;-70
2021/03/22 10:48:01;;;;;;;1.65;0.85;;;19.50;44.40;;;;;;7785430;22;20039;-69
2021/03/22 10:51:09;;;;;;;1.80;0.88;;;19.50;44.40;;;;;;7786658;22;20015;-70
2021/03/22 10:54:18;;;;;;;1.10;0.60;;;19.50;44.40;;;;;;7785072;22;20050;-69
2021/03/22 10:57:33;;;;;;;2.17;1.00;;;19.50;44.40;;;;;;7785642;22;20301;-69
2021/03/22 11:00:40;;;;;;;1.00;0.70;;;19.50;44.40;;;;;;7784581;22;20018;-69
2021/03/22 11:03:46;;;;;;;2.80;0.73;;;19.50;44.50;;;;;;7786112;22;20011;-70
2021/03/22 11:06:49;;;;;;;2.13;0.70;;;19.50;44.60;;;;;;7757797;22;20142;-69
2021/03/22 11:09:57;;;;;;;2.13;0.65;;;19.50;44.60;;;;;;7786339;22;20011;-69
2021/03/22 11:12:58;;;;;;;2.15;0.63;;;19.50;44.60;;;;;;7785897;22;20071;-70
2021/03/22 11:15:59;;;;;;;1.17;0.70;;;19.50;44.60;;;;;;7786012;22;20032;-70
2021/03/22 11:19:10;;;;;;;1.70;0.77;;;19.50;44.60;;;;;;7785472;22;20090;-70
2021/03/22 11:22:31;;;;;;;2.13;0.85;;;19.50;44.60;;;;;;7785395;22;20095;-69
2021/03/22 11:25:34;;;;;;;1.88;0.80;;;19.50;44.60;;;;;;7785474;22;20007;-70
2021/03/22 11:28:35;;;;;;;1.00;0.60;;;19.50;42.80;;;;;;7786538;22;20004;-69
2021/03/22 11:31:38;;;;;;;1.95;0.55;;;19.50;43.80;;;;;;7785150;22;20485;-69
2021/03/22 11:34:44;;;;;;;1.38;0.55;;;19.50;44.00;;;;;;7785273;22;20480;-69
2021/03/22 11:37:56;;;;;;;1.63;0.80;;;19.50;43.90;;;;;;7785806;22;20008;-70
2021/03/22 11:40:57;;;;;;;2.25;0.80;;;19.50;44.10;;;;;;7786024;22;20007;-69
2021/03/22 11:44:21;;;;;;;1.33;0.60;;;19.50;44.10;;;;;;7784118;22;20382;-69
2021/03/22 11:47:35;;;;;;;1.77;0.70;;;19.50;44.30;;;;;;7785416;22;20012;-70
2021/03/22 11:50:43;;;;;;;3.40;1.13;;;19.50;44.30;;;;;;7786147;22;20008;-70
2021/03/22 11:54:01;;;;;;;1.48;0.68;;;19.60;44.40;;;;;;7784249;22;20044;-70
2021/03/22 11:57:04;;;;;;;1.15;0.73;;;19.60;44.40;;;;;;7784572;22;20011;-70
2021/03/22 12:00:11;;;;;;;1.63;0.90;;;19.60;44.40;;;;;;7785363;22;20031;-70
2021/03/22 12:03:41;;;;;;;1.52;0.60;;;19.60;44.40;;;;;;7785008;22;20010;-69
2021/03/22 12:06:55;;;;;;;0.90;0.60;;;19.60;44.50;;;;;;7752589;22;20057;-70
2021/03/22 12:09:56;;;;;;;2.15;0.70;;;19.60;44.50;;;;;;7783957;22;20359;-70
2021/03/22 12:13:03;;;;;;;3.00;0.85;;;19.60;44.50;;;;;;7785747;22;20027;-70
2021/03/22 12:16:05;;;;;;;1.10;0.50;;;19.60;44.50;;;;;;7785379;22;20010;-69
2021/03/22 12:19:14;;;;;;;1.88;0.70;;;19.60;44.60;;;;;;7758154;22;20241;-69
2021/03/22 12:22:20;;;;;;;2.10;0.90;;;19.60;44.60;;;;;;7784062;22;20374;-70
2021/03/22 12:25:24;;;;;;;0.88;0.50;;;19.60;44.60;;;;;;7785217;22;20102;-68
2021/03/22 12:28:25;;;;;;;1.67;0.90;;;19.60;44.60;;;;;;7784230;22;20018;-70
2021/03/22 12:31:55;;;;;;;1.23;0.65;;;19.60;44.60;;;;;;7785625;22;20342;-69
2021/03/22 12:34:55;;;;;;;2.08;0.70;;;19.60;44.60;;;;;;7752212;22;20003;-68
2021/03/22 12:37:56;;;;;;;1.73;0.77;;;19.60;44.60;;;;;;7784392;22;20035;-69
2021/03/22 12:40:57;;;;;;;2.55;0.60;;;19.60;44.60;;;;;;7785383;22;20014;-69
2021/03/22 12:44:02;;;;;;;3.65;0.50;;;19.60;44.60;;;;;;7784485;22;20023;-69
2021/03/22 12:47:03;;;;;;;1.73;0.65;;;19.60;45.30;;;;;;7783517;22;20011;-69
2021/03/22 12:50:19;;;;;;;0.98;0.70;;;19.60;44.60;;;;;;7785781;22;20099;-69
2021/03/22 12:53:20;;;;;;;2.95;0.85;;;19.60;44.60;;;;;;7784055;22;20014;-70
2021/03/22 12:56:26;;;;;;;1.05;0.60;;;19.60;44.60;;;;;;7784582;22;20004;-69
2021/03/22 12:59:37;;;;;;;1.25;0.68;;;19.60;44.50;;;;;;7776700;22;20015;-69
2021/03/22 13:02:38;;;;;;;1.60;0.57;;;19.60;44.60;;;;;;7784825;22;20419;-70
2021/03/22 13:05:38;;;;;;;1.85;0.60;;;19.60;44.60;;;;;;7784983;22;20012;-69
2021/03/22 13:08:39;;;;;;;0.60;0.50;;;19.60;44.60;;;;;;7757153;22;20000;-69
2021/03/22 13:11:39;;;;;;;1.45;0.75;;;19.60;44.60;;;;;;7783821;22;20328;-70
2021/03/22 13:14:40;;;;;;;0.65;0.55;;;19.60;44.60;;;;;;7783709;22;20059;-69
2021/03/22 13:17:40;;;;;;;2.78;0.70;;;19.60;44.60;;;;;;7757746;22;20512;-70
2021/03/22 13:20:42;;;;;;;0.90;0.55;;;19.50;44.50;;;;;;7784721;22;20008;-69
2021/03/22 13:23:44;;;;;;;1.05;0.50;;;19.60;44.60;;;;;;7783715;22;20149;-69
2021/03/22 13:26:44;;;;;;;1.33;0.70;;;19.60;44.60;;;;;;7785410;22;20067;-69
2021/03/22 13:29:45;;;;;;;1.15;0.50;;;19.60;44.60;;;;;;7784668;22;20014;-70
2021/03/22 13:32:46;;;;;;;1.67;0.70;;;19.60;44.60;;;;;;7784751;22;19999;-69
2021/03/22 13:35:46;;;;;;;1.05;0.65;;;19.60;44.60;;;;;;7784420;22;20704;-70
2021/03/22 13:38:47;;;;;;;1.27;0.60;;;19.60;44.60;;;;;;7784365;22;20016;-69
2021/03/22 13:41:48;;;;;;;1.30;0.60;;;19.60;44.60;;;;;;7786298;22;20007;-70
2021/03/22 13:44:49;;;;;;;1.10;0.57;;;19.50;44.60;;;;;;7787277;22;20572;-70
2021/03/22 13:47:50;;;;;;;1.20;0.60;;;19.50;44.60;;;;;;7785829;22;20016;-70
2021/03/22 13:50:51;;;;;;;0.95;0.50;;;19.60;44.60;;;;;;7787028;22;20014;-70
2021/03/22 13:53:53;;;;;;;1.15;0.60;;;19.50;44.60;;;;;;7786942;22;20004;-70
2021/03/22 13:56:54;;;;;;;1.13;0.60;;;19.60;44.70;;;;;;7787058;22;20018;-70
2021/03/22 13:59:54;;;;;;;2.53;0.65;;;19.50;44.60;;;;;;7785605;22;20000;-69
2021/03/22 14:02:55;;;;;;;1.38;0.65;;;19.60;44.70;;;;;;7787122;22;19999;-69
2021/03/22 14:05:57;;;;;;;0.85;0.43;;;19.60;44.70;;;;;;7786364;22;20420;-69
2021/03/22 14:08:58;;;;;;;0.70;0.50;;;19.60;44.70;;;;;;7780364;22;20031;-69
2021/03/22 14:11:58;;;;;;;0.73;0.60;;;19.60;44.70;;;;;;7786107;22;20079;-70
2021/03/22 14:14:59;;;;;;;1.27;0.52;;;19.60;44.70;;;;;;7786517;22;20473;-69
2021/03/22 14:18:00;;;;;;;1.50;0.65;;;19.50;44.70;;;;;;7786443;22;20435;-70
2021/03/22 14:21:01;;;;;;;0.77;0.60;;;19.60;44.80;;;;;;7786521;22;20007;-69
2021/03/22 14:24:02;;;;;;;0.40;0.30;;;19.50;44.70;;;;;;7785581;22;20427;-69
2021/03/22 14:27:02;;;;;;;3.60;0.77;;;19.50;44.70;;;;;;7786627;22;20063;-70
2021/03/22 14:30:07;;;;;;;0.85;0.47;;;19.50;44.40;;;;;;7787326;22;20010;-70
2021/03/22 14:33:19;;;;;;;0.90;0.50;;;19.50;44.60;;;;;;7786663;22;20004;-69
2021/03/22 14:36:21;;;;;;;0.95;0.50;;;19.60;44.70;;;;;;7785121;22;20447;-70
2021/03/22 14:39:22;;;;;;;1.10;0.70;;;19.60;44.60;;;;;;7785611;22;20438;-69
2021/03/22 14:42:23;;;;;;;1.17;0.60;;;19.60;44.60;;;;;;7786276;22;20004;-70
2021/03/22 14:45:27;;;;;;;1.33;0.77;;;19.60;44.60;;;;;;7786550;22;20497;-69
2021/03/22 14:48:28;;;;;;;0.70;0.60;;;19.60;44.60;;;;;;7784986;22;20424;-68
2021/03/22 14:51:28;;;;;;;0.65;0.47;;;19.50;44.50;;;;;;7786339;22;20036;-70
2021/03/22 14:54:29;;;;;;;2.65;0.70;;;19.60;44.60;;;;;;7785660;22;20008;-69
2021/03/22 14:57:29;;;;;;;1.58;0.52;;;19.50;44.50;;;;;;7786044;22;20216;-69
2021/03/22 15:00:34;;;;;;;1.20;0.50;;;19.60;44.60;;;;;;7785816;22;20336;-70
2021/03/22 15:03:34;;;;;;;0.73;0.70;;;19.60;44.60;;;;;;7786019;22;20031;-69
2021/03/22 15:06:35;;;;;;;1.13;0.43;;;19.50;44.60;;;;;;7785918;22;20403;-69
2021/03/22 15:09:36;;;;;;;1.45;0.50;;;19.50;44.60;;;;;;7786221;22;20008;-69
2021/03/22 15:12:36;;;;;;;0.70;0.60;;;19.50;44.60;;;;;;7785609;22;19995;-69
2021/03/22 15:15:40;;;;;;;1.38;0.70;;;19.60;44.70;;;;;;7775639;22;20431;-69
2021/03/22 15:18:40;;;;;;;0.80;0.50;;;19.50;44.60;;;;;;7786108;22;20011;-70
2021/03/22 15:21:42;;;;;;;0.55;0.35;;;19.60;44.70;;;;;;7785478;22;20004;-69
2021/03/22 15:24:42;;;;;;;0.55;0.50;;;19.50;44.60;;;;;;7786065;22;20014;-70
2021/03/22 15:27:43;;;;;;;1.02;0.50;;;19.60;44.70;;;;;;7784053;22;20007;-70
2021/03/22 15:30:44;;;;;;;0.40;0.40;;;19.50;44.60;;;;;;7786097;22;20011;-69
2021/03/22 15:33:45;;;;;;;1.55;0.63;;;19.60;44.80;;;;;;7785450;22;20497;-69
2021/03/22 15:36:45;;;;;;;0.55;0.50;;;19.50;44.70;;;;;;7785080;22;20012;-69
2021/03/22 15:39:46;;;;;;;0.50;0.50;;;19.50;44.60;;;;;;7785271;22;20118;-70
2021/03/22 15:42:47;;;;;;;0.88;0.65;;;19.60;44.80;;;;;;7785239;22;20008;-69
2021/03/22 15:45:48;;;;;;;0.77;0.40;;;19.60;44.80;;;;;;7785190;22;20046;-70
2021/03/22 15:48:49;;;;;;;1.23;0.68;;;19.60;44.80;;;;;;7785185;22;20020;-69
2021/03/22 15:51:49;;;;;;;0.70;0.40;;;19.50;44.70;;;;;;7784423;22;20335;-69
2021/03/22 15:54:50;;;;;;;0.50;0.40;;;19.50;44.70;;;;;;7785588;22;20027;-69
2021/03/22 15:57:51;;;;;;;0.82;0.50;;;19.60;44.80;;;;;;7785074;22;20015;-70
2021/03/22 16:00:51;;;;;;;0.52;0.30;;;19.50;44.70;;;;;;7785388;22;20330;-69
2021/03/22 16:03:52;;;;;;;1.30;0.50;;;19.60;44.80;;;;;;7783766;22;20039;-69
2021/03/22 16:06:52;;;;;;;1.30;0.63;;;19.50;44.70;;;;;;7757788;22;20027;-69
2021/03/22 16:09:53;;;;;;;0.70;0.50;;;19.50;44.80;;;;;;7784963;22;19999;-69
2021/03/22 16:12:55;;;;;;;0.88;0.50;;;19.60;44.90;;;;;;7785505;22;20403;-70
2021/03/22 16:15:57;;;;;;;1.23;0.50;;;19.50;44.80;;;;;;7784249;22;20067;-69